Latest Weather Observations for South Channel Island

IDV60801

Issued at 8:05 pm EDT Tuesday 21 October 2014 (issued every 30 minutes, with the page automatically refreshed every 10 minutes)

About weather observations | Map of weather stations | Latest weather observations for VIC | Other Formats
Station Details ID: 086344 Name: SOUTH CHANNEL ISLAND Lat: -38.31 Lon: 144.80 Height: 9.0 m
Data from the previous 72 hours. | See also: Recent months for locations in Victoria
Date/Time
EDT
Temp
°C
App
Temp
°C
Dew
Point
Rel
Hum
%
Delta-T
°C
Wind Press
QNH
hPa
Press
MSL
hPa
Rain
since 9 am
mm
Dir
 
Spd
km/h
Gust
km/h
Spd
kts
Gust
kts
21/08:00pm - - - - - E 30 33 16 18 - - -
21/07:30pm - - - - - E 30 33 16 18 - - -
21/07:00pm - - - - - ESE 28 32 15 17 - - -
21/06:30pm - - - - - E 28 30 15 16 - - -
21/06:00pm - - - - - E 32 33 17 18 - - -
21/05:30pm - - - - - E 30 32 16 17 - - -
21/05:00pm - - - - - E 28 30 15 16 - - -
21/04:30pm - - - - - E 28 30 15 16 - - -
21/04:00pm - - - - - E 28 32 15 17 - - -
21/03:30pm - - - - - E 26 28 14 15 - - -
21/03:00pm - - - - - E 26 28 14 15 - - -
21/02:30pm - - - - - E 26 30 14 16 - - -
21/02:00pm - - - - - E 26 28 14 15 - - -
21/01:30pm - - - - - E 24 28 13 15 - - -
21/01:00pm - - - - - E 24 28 13 15 - - -
21/12:30pm - - - - - E 22 26 12 14 - - -
21/12:00pm - - - - - E 24 28 13 15 - - -
21/11:30am - - - - - E 24 28 13 15 - - -
21/11:00am - - - - - E 28 32 15 17 - - -
21/10:30am - - - - - ENE 30 33 16 18 - - -
21/10:00am - - - - - ENE 32 39 17 21 - - -
21/09:30am - - - - - ENE 35 39 19 21 - - -
21/09:00am - - - - - ENE 35 39 19 21 - - -
21/08:30am - - - - - ENE 30 33 16 18 - - -
21/08:00am - - - - - ENE 30 33 16 18 - - -
21/07:30am - - - - - ENE 35 39 19 21 - - -
21/07:00am - - - - - ENE 35 39 19 21 - - -
21/06:30am - - - - - ENE 37 41 20 22 - - -
21/06:00am - - - - - E 39 46 21 25 - - -
21/05:30am - - - - - E 39 48 21 26 - - -
21/05:00am - - - - - E 30 35 16 19 - - -
21/04:30am - - - - - E 32 41 17 22 - - -
21/04:00am - - - - - E 30 35 16 19 - - -
21/03:30am - - - - - E 30 35 16 19 - - -
21/03:00am - - - - - ESE 35 41 19 22 - - -
21/02:30am - - - - - E 35 41 19 22 - - -
21/02:00am - - - - - E 39 44 21 24 - - -
21/01:30am - - - - - E 39 48 21 26 - - -
21/01:00am - - - - - E 39 50 21 27 - - -
21/12:30am - - - - - E 43 52 23 28 - - -
21/12:00am - - - - - ESE 43 50 23 27 - - -
 
Date/Time
EDT
Temp
°C
App
Temp
°C
Dew
Point
Rel
Hum
%
Delta-T
°C
Wind Press
QNH
hPa
Press
MSL
hPa
Rain
since 9 am
mm
Dir
 
Spd
km/h
Gust
km/h
Spd
kts
Gust
kts
20/11:30pm - - - - - ESE 37 48 20 26 - - -
20/11:00pm - - - - - ESE 35 46 19 25 - - -
20/10:30pm - - - - - ESE 33 46 18 25 - - -
20/10:00pm - - - - - ESE 33 39 18 21 - - -
20/09:30pm - - - - - SE 35 43 19 23 - - -
20/09:00pm - - - - - SE 37 44 20 24 - - -
20/08:30pm - - - - - SE 39 46 21 25 - - -
20/08:00pm - - - - - SE 39 46 21 25 - - -
20/07:30pm - - - - - SE 41 50 22 27 - - -
20/07:00pm - - - - - SE 44 54 24 29 - - -
20/06:30pm - - - - - SE 44 54 24 29 - - -
20/06:00pm - - - - - SSE 46 54 25 29 - - -
20/05:30pm - - - - - SE 43 50 23 27 - - -
20/05:00pm - - - - - SE 39 48 21 26 - - -
20/04:30pm - - - - - SE 41 48 22 26 - - -
20/04:00pm - - - - - SE 37 43 20 23 - - -
20/03:30pm - - - - - SE 35 39 19 21 - - -
20/03:00pm - - - - - SE 32 37 17 20 - - -
20/02:30pm - - - - - SSE 37 43 20 23 - - -
20/02:00pm - - - - - SSE 32 37 17 20 - - -
20/01:30pm - - - - - SSE 33 37 18 20 - - -
20/01:00pm - - - - - ESE 32 39 17 21 - - -
20/12:30pm - - - - - ESE 28 33 15 18 - - -
20/12:00pm - - - - - ESE 30 35 16 19 - - -
20/11:30am - - - - - ESE 26 32 14 17 - - -
20/11:00am - - - - - SE 33 41 18 22 - - -
20/10:30am - - - - - SE 33 43 18 23 - - -
20/10:00am - - - - - SE 35 44 19 24 - - -
20/09:30am - - - - - SE 37 48 20 26 - - -
20/09:00am - - - - - ESE 33 41 18 22 - - -
20/08:30am - - - - - SE 30 41 16 22 - - -
20/08:00am - - - - - ESE 24 30 13 16 - - -
20/07:30am - - - - - ESE 24 32 13 17 - - -
20/07:00am - - - - - SE 30 33 16 18 - - -
20/06:30am - - - - - SE 28 33 15 18 - - -
20/06:00am - - - - - SE 32 35 17 19 - - -
20/05:30am - - - - - SE 35 41 19 22 - - -
20/05:00am - - - - - SE 26 32 14 17 - - -
20/04:30am - - - - - SSE 26 30 14 16 - - -
20/04:00am - - - - - SE 28 32 15 17 - - -
20/03:30am - - - - - SSE 30 33 16 18 - - -
20/03:00am - - - - - SSE 26 32 14 17 - - -
20/02:30am - - - - - SSE 30 35 16 19 - - -
20/02:00am - - - - - SSE 33 41 18 22 - - -
20/01:30am - - - - - S 35 41 19 22 - - -
20/01:00am - - - - - S 39 43 21 23 - - -
20/12:30am - - - - - S 33 41 18 22 - - -
20/12:00am - - - - - S 39 44 21 24 - - -
 
Date/Time
EDT
Temp
°C
App
Temp
°C
Dew
Point
Rel
Hum
%
Delta-T
°C
Wind Press
QNH
hPa
Press
MSL
hPa
Rain
since 9 am
mm
Dir
 
Spd
km/h
Gust
km/h
Spd
kts
Gust
kts
19/11:30pm - - - - - S 39 48 21 26 - - -
19/11:00pm - - - - - S 39 46 21 25 - - -
19/10:30pm - - - - - S 39 50 21 27 - - -
19/10:00pm - - - - - S 41 48 22 26 - - -
19/09:30pm - - - - - S 35 41 19 22 - - -
19/09:00pm - - - - - S 43 56 23 30 - - -
19/08:30pm - - - - - SSW 39 48 21 26 - - -
19/08:00pm - - - - - SSW 35 43 19 23 - - -
19/07:30pm - - - - - SSW 32 39 17 21 - - -
19/07:00pm - - - - - SSW 43 54 23 29 - - -
19/06:30pm - - - - - SSW 43 50 23 27 - - -
19/06:00pm - - - - - SSW 41 48 22 26 - - -
19/05:30pm - - - - - SSW 46 57 25 31 - - -
19/05:00pm - - - - - SSW 37 44 20 24 - - -
19/04:30pm - - - - - SSW 41 48 22 26 - - -
19/04:00pm - - - - - S 35 43 19 23 - - -
19/03:30pm - - - - - SSW 43 50 23 27 - - -
19/03:00pm - - - - - SSW 41 46 22 25 - - -
19/02:30pm - - - - - SSW 37 43 20 23 - - -
19/02:00pm - - - - - SSW 41 48 22 26 - - -
19/01:46pm - - - - - SW 37 48 20 26 - - -
19/01:30pm - - - - - WSW 28 30 15 16 - - -
19/01:00pm - - - - - N 32 35 17 19 - - -
19/12:30pm - - - - - N 39 44 21 24 - - -
19/12:00pm - - - - - N 39 43 21 23 - - -
19/11:30am - - - - - N 39 44 21 24 - - -
19/11:00am - - - - - N 44 50 24 27 - - -
19/10:30am - - - - - N 41 48 22 26 - - -
19/10:00am - - - - - N 43 48 23 26 - - -
19/09:30am - - - - - N 39 48 21 26 - - -
19/09:00am - - - - - N 35 39 19 21 - - -
19/08:30am - - - - - N 39 46 21 25 - - -
19/08:00am - - - - - N 43 50 23 27 - - -
19/07:30am - - - - - N 44 52 24 28 - - -
19/07:00am - - - - - N 46 54 25 29 - - -
19/06:30am - - - - - N 46 52 25 28 - - -
19/06:00am - - - - - N 41 48 22 26 - - -
19/05:30am - - - - - N 35 41 19 22 - - -
19/05:00am - - - - - N 41 48 22 26 - - -
19/04:30am - - - - - N 46 52 25 28 - - -
19/04:00am - - - - - N 43 48 23 26 - - -
19/03:30am - - - - - N 44 50 24 27 - - -
19/03:00am - - - - - N 46 52 25 28 - - -
19/02:30am - - - - - N 43 50 23 27 - - -
19/02:00am - - - - - N 39 43 21 23 - - -
19/01:30am - - - - - N 35 39 19 21 - - -
19/01:00am - - - - - NNE 26 32 14 17 - - -
19/12:30am - - - - - NNE 26 28 14 15 - - -
19/12:00am - - - - - NE 30 32 16 17 - - -
 
Date/Time
EDT
Temp
°C
App
Temp
°C
Dew
Point
Rel
Hum
%
Delta-T
°C
Wind Press
QNH
hPa
Press
MSL
hPa
Rain
since 9 am
mm
Dir
 
Spd
km/h
Gust
km/h
Spd
kts
Gust
kts
18/11:30pm - - - - - NNE 30 33 16 18 - - -
18/11:00pm - - - - - NE 32 33 17 18 - - -
18/10:30pm - - - - - NNE 32 35 17 19 - - -
18/10:00pm - - - - - NE 28 30 15 16 - - -
18/09:30pm - - - - - NE 24 28 13 15 - - -
18/09:00pm - - - - - NNE 26 32 14 17 - - -
18/08:30pm - - - - - N 28 28 15 15 - - -

Other Formats:

Comma delimited format used in spreadsheet applications
http://www.bom.gov.au/fwo/IDV60801/IDV60801.94853.axf

JavaScript Object Notation format (JSON) in row-major order
http://www.bom.gov.au/fwo/IDV60801/IDV60801.94853.json